Time;durP1;ratioP1;P1;durP2;ratioP2;P2;SDS_P1;SDS_P2;PMS_P1;PMS_P2;Temp;Humidity;BMP_temperature;BMP_pressure;BME280_temperature;BME280_humidity;BME280_pressure;Samples;Min_cycle;Max_cycle;Signal;HPM_P1;HPM_P2
2022/12/24 00:00:58;;;;;;;11.70;6.63;;;5.70;99.90;;;;;;5053276;28;20480;-69
2022/12/24 00:03:24;;;;;;;10.17;6.97;;;5.70;99.90;;;;;;5053444;28;20920;-69
2022/12/24 00:05:50;;;;;;;12.47;7.10;;;5.70;99.90;;;;;;5053725;28;20170;-69
2022/12/24 00:08:15;;;;;;;12.67;8.03;;;5.60;99.90;;;;;;5053085;28;20698;-68
2022/12/24 00:10:41;;;;;;;13.13;7.07;;;5.70;99.90;;;;;;5053005;28;20179;-68
2022/12/24 00:13:06;;;;;;;9.40;7.10;;;5.60;99.90;;;;;;5053014;28;20171;-69
2022/12/24 00:15:32;;;;;;;11.27;7.50;;;5.60;99.90;;;;;;5035064;28;20205;-69
2022/12/24 00:17:57;;;;;;;11.83;6.87;;;5.60;99.90;;;;;;5052950;28;20228;-68
2022/12/24 00:20:23;;;;;;;11.00;7.87;;;5.60;99.90;;;;;;5051295;28;20282;-69
2022/12/24 00:22:49;;;;;;;11.90;7.03;;;5.60;99.90;;;;;;5042529;28;20282;-69
2022/12/24 00:25:15;;;;;;;15.17;8.00;;;5.60;99.90;;;;;;5046781;28;20495;-69
2022/12/24 00:27:40;;;;;;;12.93;8.20;;;5.50;99.90;;;;;;5053459;28;20234;-68
2022/12/24 00:30:06;;;;;;;11.33;7.37;;;5.60;99.90;;;;;;5053444;28;20612;-69
2022/12/24 00:32:32;;;;;;;8.60;6.23;;;5.50;99.90;;;;;;5053291;28;20175;-67
2022/12/24 00:34:58;;;;;;;10.07;6.80;;;5.50;99.90;;;;;;5052957;28;20799;-69
2022/12/24 00:37:23;;;;;;;12.17;7.47;;;5.50;99.90;;;;;;5052769;28;20562;-68
2022/12/24 00:39:49;;;;;;;10.60;5.70;;;5.50;99.90;;;;;;5052736;28;20603;-68
2022/12/24 00:42:14;;;;;;;12.53;7.97;;;5.50;99.90;;;;;;5051647;28;20175;-68
2022/12/24 00:44:40;;;;;;;10.20;6.20;;;5.40;99.90;;;;;;5048978;28;20377;-68
2022/12/24 00:47:05;;;;;;;10.83;7.33;;;5.40;99.90;;;;;;5052769;28;20300;-69
2022/12/24 00:49:31;;;;;;;9.63;6.90;;;5.50;99.90;;;;;;5052407;28;20198;-69
2022/12/24 00:51:57;;;;;;;10.73;6.43;;;5.50;99.90;;;;;;5051817;28;20187;-70
2022/12/24 00:54:22;;;;;;;9.50;6.57;;;5.50;99.90;;;;;;5052790;28;20183;-69
2022/12/24 00:56:48;;;;;;;7.37;5.83;;;5.50;99.90;;;;;;5052731;28;20699;-68
2022/12/24 00:59:13;;;;;;;11.60;6.27;;;5.50;99.90;;;;;;5052293;28;20217;-69
2022/12/24 01:01:39;;;;;;;11.37;6.73;;;5.50;99.90;;;;;;5052663;28;20175;-69
2022/12/24 01:06:49;;;;;;;12.03;6.30;;;5.50;99.90;;;;;;5049378;28;20214;-69
2022/12/24 01:09:14;;;;;;;12.50;6.20;;;5.50;99.90;;;;;;5034557;28;20437;-69
2022/12/24 01:11:40;;;;;;;10.07;7.07;;;5.50;99.90;;;;;;5050347;28;20382;-69
2022/12/24 01:14:05;;;;;;;10.13;7.30;;;5.50;99.90;;;;;;5050483;28;20255;-69
2022/12/24 01:16:31;;;;;;;8.43;5.43;;;5.50;99.90;;;;;;5051822;28;20277;-68
2022/12/24 01:18:57;;;;;;;12.50;6.37;;;5.50;99.90;;;;;;5050382;28;20183;-69
2022/12/24 01:21:22;;;;;;;12.63;6.60;;;5.50;99.90;;;;;;5052101;28;20609;-69
2022/12/24 01:23:48;;;;;;;8.77;5.93;;;5.50;99.90;;;;;;5051636;28;20207;-69
2022/12/24 01:26:13;;;;;;;13.70;7.07;;;5.50;99.90;;;;;;5051934;28;20273;-69
2022/12/24 01:28:40;;;;;;;14.80;8.77;;;5.40;99.90;;;;;;5052025;28;20167;-69
2022/12/24 01:31:23;;;;;;;13.43;7.87;;;5.50;99.90;;;;;;5051812;28;20175;-69
2022/12/24 01:33:49;;;;;;;13.97;8.70;;;5.50;99.90;;;;;;5051464;28;20449;-69
2022/12/24 01:36:14;;;;;;;10.40;6.47;;;5.50;99.90;;;;;;5051866;28;20434;-69
2022/12/24 01:38:40;;;;;;;15.30;8.50;;;5.50;99.90;;;;;;5051559;28;20171;-68
2022/12/24 01:43:55;;;;;;;8.30;6.00;;;5.60;99.90;;;;;;5051529;28;20460;-68
2022/12/24 01:46:28;;;;;;;15.47;8.87;;;5.60;99.90;;;;;;5051768;28;20413;-69
2022/12/24 01:48:57;;;;;;;13.43;8.03;;;5.60;99.90;;;;;;5051378;28;20171;-68
2022/12/24 01:51:37;;;;;;;11.43;7.80;;;5.50;99.90;;;;;;5045110;28;20455;-68
2022/12/24 01:54:16;;;;;;;15.50;7.83;;;5.50;99.90;;;;;;5050936;28;20437;-68
2022/12/24 01:56:51;;;;;;;15.23;7.90;;;5.50;99.90;;;;;;5049677;28;20405;-67
2022/12/24 01:59:18;;;;;;;12.20;7.80;;;5.50;99.90;;;;;;5051167;28;20551;-68
2022/12/24 02:01:47;;;;;;;16.70;8.37;;;5.50;99.90;;;;;;5048802;28;20416;-68
2022/12/24 02:04:22;;;;;;;18.37;8.47;;;5.50;99.90;;;;;;5048190;28;20796;-68
2022/12/24 02:06:48;;;;;;;16.00;8.27;;;5.50;99.90;;;;;;5050982;28;20889;-68
2022/12/24 02:09:14;;;;;;;14.57;9.20;;;5.50;99.90;;;;;;5051164;28;20414;-68
2022/12/24 02:11:43;;;;;;;12.33;7.60;;;5.50;99.90;;;;;;5033342;28;20273;-68
2022/12/24 02:14:10;;;;;;;12.77;7.50;;;5.50;99.90;;;;;;5051700;28;20761;-69
2022/12/24 02:16:54;;;;;;;10.87;7.30;;;5.50;99.90;;;;;;5051236;28;20424;-69
2022/12/24 02:19:37;;;;;;;12.97;7.70;;;5.50;99.90;;;;;;5043901;28;20457;-69
2022/12/24 02:22:50;;;;;;;12.33;7.70;;;5.50;99.90;;;;;;5051382;28;20919;-69
2022/12/24 02:25:32;;;;;;;12.53;8.17;;;5.50;99.90;;;;;;4984073;28;20466;-69
2022/12/24 02:28:27;;;;;;;14.73;8.40;;;5.50;99.90;;;;;;5045846;28;20424;-68
2022/12/24 02:31:24;;;;;;;11.77;8.20;;;5.40;99.90;;;;;;5071470;23;21032;-70
2022/12/24 02:33:56;;;;;;;15.80;9.20;;;5.40;99.90;;;;;;5052087;28;20938;-70
2022/12/24 02:36:34;;;;;;;12.00;8.37;;;5.40;99.90;;;;;;5051963;28;20401;-68
2022/12/24 02:39:04;;;;;;;12.00;7.37;;;5.50;99.90;;;;;;5051805;28;20508;-68
2022/12/24 02:42:20;;;;;;;12.47;8.77;;;5.50;99.90;;;;;;5052257;28;20462;-69
2022/12/24 02:44:24;;;;;;;14.97;9.53;;;5.40;99.90;;;;;;5034828;28;21049;-69
2022/12/24 02:46:51;;;;;;;15.90;9.93;;;5.50;99.90;;;;;;5051395;28;20420;-68
2022/12/24 02:49:17;;;;;;;14.03;8.43;;;5.50;99.90;;;;;;5050626;28;20414;-70
2022/12/24 02:51:43;;;;;;;14.40;9.60;;;5.50;99.90;;;;;;5051659;28;20429;-67
2022/12/24 02:54:09;;;;;;;14.87;8.13;;;5.50;99.90;;;;;;5051617;28;20182;-68
2022/12/24 02:56:53;;;;;;;17.17;9.50;;;5.50;99.90;;;;;;5051650;28;20171;-68
2022/12/24 02:59:34;;;;;;;13.97;9.13;;;5.50;99.90;;;;;;5044271;28;20485;-69
2022/12/24 03:01:59;;;;;;;17.10;9.93;;;5.50;99.90;;;;;;5050014;28;20440;-68
2022/12/24 03:04:51;;;;;;;12.60;8.00;;;5.50;99.90;;;;;;5051483;28;20413;-68
2022/12/24 03:07:26;;;;;;;13.50;7.50;;;5.50;99.90;;;;;;5043992;28;20570;-68
2022/12/24 03:10:10;;;;;;;15.27;9.07;;;5.50;99.90;;;;;;5051366;28;20425;-69
2022/12/24 03:12:46;;;;;;;15.50;8.73;;;5.50;99.90;;;;;;5051595;28;20422;-68
2022/12/24 03:15:16;;;;;;;18.03;9.93;;;5.50;99.90;;;;;;5049417;28;20509;-68
2022/12/24 03:17:45;;;;;;;14.63;8.73;;;5.50;99.90;;;;;;5051390;28;20418;-69
2022/12/24 03:20:15;;;;;;;15.77;7.90;;;5.50;99.90;;;;;;5050934;28;20484;-68
2022/12/24 03:22:40;;;;;;;12.03;9.10;;;5.50;99.90;;;;;;5051296;28;20413;-68
2022/12/24 03:25:06;;;;;;;18.80;10.90;;;5.50;99.90;;;;;;5051122;28;20409;-68
2022/12/24 03:27:33;;;;;;;12.17;8.30;;;5.50;99.90;;;;;;5050888;28;20175;-68
2022/12/24 03:30:00;;;;;;;14.43;9.00;;;5.50;99.90;;;;;;5047110;28;20436;-69
2022/12/24 03:32:30;;;;;;;12.33;7.53;;;5.50;99.90;;;;;;5050928;28;20457;-69
2022/12/24 03:34:56;;;;;;;17.97;9.17;;;5.50;99.90;;;;;;5051125;28;20441;-69
2022/12/24 03:37:23;;;;;;;11.70;7.03;;;5.40;99.90;;;;;;5051122;28;20485;-69
2022/12/24 03:39:48;;;;;;;13.57;9.60;;;5.50;99.90;;;;;;5050907;28;20734;-68
2022/12/24 03:42:14;;;;;;;18.17;8.90;;;5.40;99.90;;;;;;5050942;28;20440;-68
2022/12/24 03:44:40;;;;;;;18.83;9.23;;;5.50;99.90;;;;;;5051070;28;20215;-68
2022/12/24 03:47:05;;;;;;;16.00;8.90;;;5.40;99.90;;;;;;5050926;28;20186;-68
2022/12/24 03:49:31;;;;;;;15.33;8.43;;;5.40;99.90;;;;;;5050774;28;20220;-68
2022/12/24 03:51:56;;;;;;;21.77;9.30;;;5.40;99.90;;;;;;5050840;28;20206;-68
2022/12/24 03:54:22;;;;;;;17.70;8.50;;;5.50;99.90;;;;;;5050901;28;20288;-68
2022/12/24 03:56:47;;;;;;;15.43;8.73;;;5.40;99.90;;;;;;5050834;28;20182;-69
2022/12/24 03:59:13;;;;;;;14.13;8.20;;;5.40;99.90;;;;;;5050482;28;20556;-68
2022/12/24 04:01:39;;;;;;;16.80;9.30;;;5.40;99.90;;;;;;5050830;28;20278;-68
2022/12/24 04:04:04;;;;;;;14.40;8.63;;;5.40;99.90;;;;;;5050913;28;20171;-68
2022/12/24 04:06:30;;;;;;;16.13;7.07;;;5.40;99.90;;;;;;5050706;28;20175;-68
2022/12/24 04:08:55;;;;;;;12.10;7.60;;;5.40;99.90;;;;;;5050837;28;20519;-68
2022/12/24 04:11:21;;;;;;;11.37;7.20;;;5.40;99.90;;;;;;5050772;28;20261;-68
2022/12/24 04:13:47;;;;;;;18.80;9.20;;;5.40;99.90;;;;;;5050939;28;20179;-69
2022/12/24 04:16:14;;;;;;;14.50;8.50;;;5.40;99.90;;;;;;5050654;28;20167;-68
2022/12/24 04:18:42;;;;;;;14.47;8.27;;;5.40;99.90;;;;;;5050796;28;20249;-68
2022/12/24 04:21:08;;;;;;;12.50;7.53;;;5.40;99.90;;;;;;5050423;28;20473;-68
2022/12/24 04:23:35;;;;;;;10.20;7.43;;;5.40;99.90;;;;;;5050665;28;20453;-68
2022/12/24 04:26:02;;;;;;;18.27;8.83;;;5.40;99.90;;;;;;5050887;28;20409;-68
2022/12/24 04:28:29;;;;;;;14.63;8.00;;;5.40;99.90;;;;;;5046437;28;20415;-68
2022/12/24 04:31:03;;;;;;;17.47;9.37;;;5.40;99.90;;;;;;5047661;28;20457;-68
2022/12/24 04:33:29;;;;;;;12.33;7.80;;;5.50;99.90;;;;;;5049495;28;20409;-67
2022/12/24 04:35:59;;;;;;;12.10;8.27;;;5.50;99.90;;;;;;5050442;28;20418;-67
2022/12/24 04:38:25;;;;;;;13.87;8.73;;;5.50;99.90;;;;;;5050622;28;20171;-67
2022/12/24 04:41:02;;;;;;;17.33;8.13;;;5.40;99.90;;;;;;5053295;28;20472;-67
2022/12/24 04:43:29;;;;;;;10.37;7.60;;;5.50;99.90;;;;;;5054259;28;20198;-67
2022/12/24 04:45:55;;;;;;;14.50;8.87;;;5.40;99.90;;;;;;5053993;28;20436;-68
2022/12/24 04:48:21;;;;;;;18.70;8.53;;;5.40;99.90;;;;;;5054163;28;20416;-67
2022/12/24 04:50:46;;;;;;;15.60;8.50;;;5.40;99.90;;;;;;5054375;28;20437;-68
2022/12/24 04:53:13;;;;;;;13.60;8.67;;;5.50;99.90;;;;;;5054385;28;20409;-67
2022/12/24 04:55:44;;;;;;;14.00;7.17;;;5.50;99.90;;;;;;5054323;28;20175;-67
2022/12/24 04:58:09;;;;;;;13.27;7.67;;;5.50;99.90;;;;;;5053850;28;20978;-67
2022/12/24 05:00:35;;;;;;;10.97;7.17;;;5.50;99.90;;;;;;5054129;28;20564;-68
2022/12/24 05:03:01;;;;;;;13.03;8.73;;;5.50;99.90;;;;;;5053782;28;20171;-68
2022/12/24 05:05:26;;;;;;;13.67;8.90;;;5.50;99.90;;;;;;5053864;28;20175;-68
2022/12/24 05:07:52;;;;;;;15.20;7.20;;;5.50;99.90;;;;;;5053837;28;20225;-67
2022/12/24 05:10:18;;;;;;;11.30;7.07;;;5.50;99.90;;;;;;5053563;28;20266;-68
2022/12/24 05:12:43;;;;;;;12.40;8.10;;;5.50;99.90;;;;;;5053601;28;20500;-68
2022/12/24 05:15:09;;;;;;;15.60;8.70;;;5.40;99.90;;;;;;5053477;28;20174;-67
2022/12/24 05:17:35;;;;;;;10.07;6.53;;;5.40;99.90;;;;;;5047602;28;20233;-67
2022/12/24 05:20:00;;;;;;;13.50;8.57;;;5.40;99.90;;;;;;5053256;28;20199;-68
2022/12/24 05:27:54;;;;;;;12.40;8.53;;;5.40;99.90;;;;;;5053604;28;20413;-68
2022/12/24 05:30:20;;;;;;;11.30;8.40;;;5.30;99.90;;;;;;5052920;28;20413;-67
2022/12/24 05:32:45;;;;;;;11.63;7.43;;;5.30;99.90;;;;;;5053435;28;20467;-68
2022/12/24 05:35:11;;;;;;;14.90;9.10;;;5.30;99.90;;;;;;5052862;28;20253;-67
2022/12/24 05:37:38;;;;;;;16.93;9.63;;;5.30;99.90;;;;;;5053230;28;20175;-67
2022/12/24 05:40:04;;;;;;;11.70;6.67;;;5.30;99.90;;;;;;5052954;28;20479;-68
2022/12/24 05:42:29;;;;;;;12.70;7.90;;;5.40;99.90;;;;;;5053182;28;20697;-68
2022/12/24 05:44:55;;;;;;;13.53;8.60;;;5.40;99.90;;;;;;5053129;28;20445;-68
2022/12/24 05:47:21;;;;;;;12.20;8.63;;;5.40;99.90;;;;;;5052861;28;20643;-68
2022/12/24 05:49:46;;;;;;;15.80;9.40;;;5.40;99.90;;;;;;5052945;28;20180;-68
2022/12/24 05:52:12;;;;;;;8.70;7.27;;;5.40;99.90;;;;;;5050331;28;20669;-68
2022/12/24 05:54:37;;;;;;;15.17;8.80;;;5.40;99.90;;;;;;5053123;28;20173;-70
2022/12/24 05:57:03;;;;;;;14.70;9.10;;;5.50;99.90;;;;;;5051719;28;20175;-67
2022/12/24 05:59:28;;;;;;;12.57;8.13;;;5.50;99.90;;;;;;5052457;28;20687;-67
2022/12/24 06:01:54;;;;;;;17.00;9.97;;;5.50;99.90;;;;;;5052548;28;20191;-67
2022/12/24 06:04:19;;;;;;;18.57;9.60;;;5.50;99.90;;;;;;5052889;28;20175;-67
2022/12/24 06:06:45;;;;;;;15.00;9.60;;;5.50;99.90;;;;;;5052700;28;20167;-67
2022/12/24 06:09:11;;;;;;;17.20;10.23;;;5.50;99.90;;;;;;5036411;28;20237;-67
2022/12/24 06:11:36;;;;;;;14.70;9.73;;;5.50;99.90;;;;;;5052622;28;20191;-68
2022/12/24 06:14:02;;;;;;;12.90;8.80;;;5.50;99.90;;;;;;5052749;28;20167;-68
2022/12/24 06:16:28;;;;;;;17.30;9.70;;;5.50;99.90;;;;;;5052995;28;20175;-68
2022/12/24 06:18:54;;;;;;;15.90;9.03;;;5.40;99.90;;;;;;5052779;28;20424;-68
2022/12/24 06:21:20;;;;;;;17.10;9.97;;;5.40;99.90;;;;;;5052535;28;20195;-68
2022/12/24 06:23:46;;;;;;;13.87;9.30;;;5.50;99.90;;;;;;5052876;28;20201;-68
2022/12/24 06:26:15;;;;;;;15.50;8.77;;;5.40;99.90;;;;;;5052386;28;20313;-67
2022/12/24 06:28:41;;;;;;;12.90;9.23;;;5.40;99.90;;;;;;5049384;28;20401;-67
2022/12/24 06:31:11;;;;;;;15.57;9.40;;;5.40;99.90;;;;;;5052254;28;20449;-68
2022/12/24 06:33:37;;;;;;;12.70;8.00;;;5.40;99.90;;;;;;5052201;28;20417;-68
2022/12/24 06:36:06;;;;;;;17.37;9.20;;;5.40;99.90;;;;;;5052010;28;20413;-68
2022/12/24 06:38:31;;;;;;;12.50;8.80;;;5.30;99.90;;;;;;5052137;28;20500;-68
2022/12/24 06:40:57;;;;;;;16.30;8.70;;;5.30;99.90;;;;;;5051605;28;20915;-67
2022/12/24 06:43:23;;;;;;;16.37;9.70;;;5.30;99.90;;;;;;5028034;28;20171;-68
2022/12/24 06:45:48;;;;;;;16.63;9.07;;;5.30;99.90;;;;;;5051669;28;20637;-68
2022/12/24 06:48:15;;;;;;;15.17;8.73;;;5.30;99.90;;;;;;5051969;28;20174;-68
2022/12/24 06:50:41;;;;;;;17.30;10.00;;;5.30;99.90;;;;;;5051592;28;20272;-68
2022/12/24 06:53:07;;;;;;;17.83;10.33;;;5.20;99.90;;;;;;5051714;28;20422;-68
2022/12/24 06:55:32;;;;;;;12.77;9.10;;;5.30;99.90;;;;;;5052003;28;20808;-70
2022/12/24 06:57:58;;;;;;;14.90;9.53;;;5.40;99.90;;;;;;5048272;28;20672;-68
2022/12/24 07:00:24;;;;;;;16.17;9.47;;;5.40;99.90;;;;;;5051662;28;20642;-68
2022/12/24 07:02:49;;;;;;;13.83;8.63;;;5.40;99.90;;;;;;5051438;28;20178;-68
2022/12/24 07:05:16;;;;;;;12.30;7.90;;;5.30;99.90;;;;;;5046371;28;20264;-68
2022/12/24 07:07:43;;;;;;;13.33;9.10;;;5.30;99.90;;;;;;5050541;28;20229;-68
2022/12/24 07:10:14;;;;;;;14.43;8.93;;;5.30;99.90;;;;;;5049493;28;20753;-68
2022/12/24 07:12:40;;;;;;;17.57;9.70;;;5.30;99.90;;;;;;5051788;28;20504;-68
2022/12/24 07:15:06;;;;;;;13.50;7.97;;;5.30;99.90;;;;;;5049211;28;20448;-68
2022/12/24 07:17:32;;;;;;;14.13;9.50;;;5.30;99.90;;;;;;5046211;28;20497;-68
2022/12/24 07:19:58;;;;;;;11.27;7.97;;;5.30;99.90;;;;;;5051446;28;20561;-68
2022/12/24 07:22:23;;;;;;;11.40;7.37;;;5.30;99.90;;;;;;5051430;28;20222;-68
2022/12/24 07:24:49;;;;;;;15.23;9.43;;;5.30;99.90;;;;;;5047637;28;20182;-68
2022/12/24 07:27:15;;;;;;;13.80;8.17;;;5.30;99.90;;;;;;5051592;28;20531;-68
2022/12/24 07:29:40;;;;;;;14.57;8.60;;;5.40;99.90;;;;;;5051342;28;20510;-67
2022/12/24 07:32:06;;;;;;;15.53;9.07;;;5.40;99.90;;;;;;5051092;28;20667;-67
2022/12/24 07:34:32;;;;;;;15.47;9.20;;;5.40;99.90;;;;;;5048942;28;20642;-68
2022/12/24 07:36:57;;;;;;;16.83;8.40;;;5.30;99.90;;;;;;5051052;28;20297;-67
2022/12/24 07:39:23;;;;;;;15.83;9.00;;;5.40;99.90;;;;;;5051070;28;20297;-68
2022/12/24 07:41:51;;;;;;;13.30;8.40;;;5.40;99.90;;;;;;5051055;28;20286;-67
2022/12/24 07:44:17;;;;;;;14.90;9.60;;;5.30;99.90;;;;;;5044865;28;20175;-67
2022/12/24 07:46:43;;;;;;;15.37;9.50;;;5.40;99.90;;;;;;5050949;28;20413;-66
2022/12/24 07:49:09;;;;;;;13.33;8.97;;;5.40;99.90;;;;;;5045423;28;20171;-66
2022/12/24 07:51:35;;;;;;;11.33;7.60;;;5.40;99.90;;;;;;5050731;28;21007;-67
2022/12/24 07:54:00;;;;;;;17.00;9.40;;;5.40;99.90;;;;;;5050854;28;20413;-67
2022/12/24 07:56:26;;;;;;;12.83;8.17;;;5.40;99.90;;;;;;5049761;28;20506;-67
2022/12/24 07:58:51;;;;;;;16.63;8.30;;;5.40;99.90;;;;;;5050726;28;20187;-68
2022/12/24 08:01:18;;;;;;;13.30;7.33;;;5.40;99.90;;;;;;5050663;28;20252;-67
2022/12/24 08:03:43;;;;;;;11.57;7.67;;;5.40;99.90;;;;;;5051068;28;20167;-67
2022/12/24 08:06:10;;;;;;;16.30;7.20;;;5.40;99.90;;;;;;5050945;28;20415;-66
2022/12/24 08:08:36;;;;;;;15.33;8.23;;;5.40;99.90;;;;;;5051535;28;20170;-67
2022/12/24 08:11:04;;;;;;;19.70;9.30;;;5.40;99.90;;;;;;5050824;28;20433;-67
2022/12/24 08:13:30;;;;;;;19.10;9.03;;;5.40;99.90;;;;;;5051081;28;20413;-67
2022/12/24 08:15:56;;;;;;;14.40;9.10;;;5.40;99.90;;;;;;5054122;28;20432;-69
2022/12/24 08:18:22;;;;;;;19.90;8.13;;;5.40;99.90;;;;;;5054790;28;20916;-70
2022/12/24 08:20:48;;;;;;;14.60;6.90;;;5.40;99.90;;;;;;5054427;28;20214;-67
2022/12/24 08:23:13;;;;;;;20.10;9.30;;;5.40;99.90;;;;;;5051955;28;20958;-67
2022/12/24 08:25:44;;;;;;;14.87;8.97;;;5.50;99.90;;;;;;5054625;28;20171;-66
2022/12/24 08:28:10;;;;;;;16.40;9.03;;;5.50;99.90;;;;;;5054473;28;20171;-66
2022/12/24 08:30:35;;;;;;;18.73;11.23;;;5.50;99.90;;;;;;5054260;28;20954;-66
2022/12/24 08:33:01;;;;;;;17.20;10.63;;;5.50;99.90;;;;;;5054615;28;20436;-66
2022/12/24 08:35:27;;;;;;;15.67;8.67;;;5.60;99.90;;;;;;5054621;28;20519;-67
2022/12/24 08:37:53;;;;;;;20.73;9.47;;;5.60;99.90;;;;;;5052789;28;20433;-66
2022/12/24 08:40:18;;;;;;;12.97;7.77;;;5.60;99.90;;;;;;5088899;23;20477;-69
2022/12/24 08:42:44;;;;;;;16.50;10.30;;;5.60;99.90;;;;;;5052785;28;20167;-69
2022/12/24 08:45:10;;;;;;;15.07;9.33;;;5.60;99.90;;;;;;5052671;28;20167;-68
2022/12/24 08:47:37;;;;;;;13.90;10.20;;;5.60;99.90;;;;;;5052848;28;20174;-69
2022/12/24 08:50:04;;;;;;;16.87;9.17;;;5.60;99.90;;;;;;5054166;28;20890;-69
2022/12/24 08:52:30;;;;;;;13.70;8.47;;;5.60;99.90;;;;;;5056689;28;20832;-68
2022/12/24 08:54:55;;;;;;;16.97;9.23;;;5.60;99.90;;;;;;5058150;28;20543;-69
2022/12/24 08:57:21;;;;;;;12.87;8.57;;;5.70;99.90;;;;;;5048437;28;20182;-70
2022/12/24 08:59:46;;;;;;;14.47;8.87;;;5.70;99.90;;;;;;5054199;28;20297;-69
2022/12/24 09:02:12;;;;;;;14.30;8.40;;;5.70;99.90;;;;;;5061958;28;20171;-70
2022/12/24 09:04:39;;;;;;;15.20;8.20;;;5.60;99.90;;;;;;5059072;28;20591;-69
2022/12/24 09:07:05;;;;;;;15.70;8.40;;;5.60;99.90;;;;;;5053950;28;20164;-69
2022/12/24 09:09:31;;;;;;;10.47;7.30;;;5.60;99.90;;;;;;5052770;28;20919;-69
2022/12/24 09:11:56;;;;;;;15.40;8.90;;;5.70;99.90;;;;;;5058522;28;20460;-70
2022/12/24 09:14:22;;;;;;;15.90;8.20;;;5.70;99.90;;;;;;5054973;28;20228;-68
2022/12/24 09:16:47;;;;;;;14.37;8.43;;;5.80;99.90;;;;;;5052906;28;20175;-68
2022/12/24 09:19:13;;;;;;;16.57;7.20;;;5.80;99.90;;;;;;5043951;28;20313;-69
2022/12/24 09:21:38;;;;;;;15.33;8.20;;;5.80;99.90;;;;;;5052588;28;20175;-70
2022/12/24 09:24:04;;;;;;;11.50;8.33;;;5.70;99.90;;;;;;5045375;28;20191;-68
2022/12/24 09:26:30;;;;;;;13.00;8.57;;;5.70;99.90;;;;;;5054960;28;20641;-69
2022/12/24 09:28:58;;;;;;;12.00;8.30;;;5.80;99.90;;;;;;5051221;28;20954;-68
2022/12/24 09:31:24;;;;;;;11.00;8.47;;;5.80;99.90;;;;;;5047527;28;20499;-69
2022/12/24 09:33:50;;;;;;;18.43;9.70;;;5.80;99.90;;;;;;5052331;28;20890;-67
2022/12/24 09:36:17;;;;;;;13.53;7.53;;;5.80;99.90;;;;;;5051869;28;20463;-68
2022/12/24 09:38:43;;;;;;;12.93;9.30;;;5.80;99.90;;;;;;5048287;28;20429;-68
2022/12/24 09:41:24;;;;;;;10.07;7.53;;;5.80;99.90;;;;;;5051695;28;20465;-69
2022/12/24 09:44:22;;;;;;;11.60;8.53;;;5.80;99.90;;;;;;5054714;28;20409;-69
2022/12/24 09:46:50;;;;;;;16.40;10.40;;;5.90;99.90;;;;;;5058085;28;20449;-68
2022/12/24 09:49:23;;;;;;;12.70;8.83;;;6.00;99.90;;;;;;5053767;28;20452;-71
2022/12/24 09:51:59;;;;;;;23.60;9.20;;;6.10;99.90;;;;;;5042852;28;20410;-70
2022/12/24 09:54:31;;;;;;;16.50;8.80;;;6.00;99.90;;;;;;5033621;28;20417;-68
2022/12/24 09:57:01;;;;;;;14.07;8.67;;;5.90;99.90;;;;;;5049859;28;20402;-68
2022/12/24 09:59:40;;;;;;;14.90;9.70;;;6.10;99.90;;;;;;5043962;28;20496;-69
2022/12/24 10:02:11;;;;;;;15.90;9.80;;;6.20;99.90;;;;;;5050757;28;20855;-69
2022/12/24 10:04:36;;;;;;;16.50;9.03;;;6.20;99.90;;;;;;5051616;28;20824;-68
2022/12/24 10:07:28;;;;;;;13.80;9.43;;;6.10;99.90;;;;;;5050206;28;20462;-68
2022/12/24 10:10:25;;;;;;;19.17;9.47;;;6.10;99.90;;;;;;5044111;28;20218;-70
2022/12/24 10:13:08;;;;;;;17.27;9.40;;;6.10;99.90;;;;;;5051255;28;20429;-69
2022/12/24 10:15:55;;;;;;;12.47;8.90;;;6.00;99.90;;;;;;5056132;28;20397;-69
2022/12/24 10:19:09;;;;;;;14.03;10.27;;;5.90;99.90;;;;;;5052842;28;20466;-69
2022/12/24 10:21:58;;;;;;;14.30;9.77;;;6.20;99.90;;;;;;5052451;28;20445;-69
2022/12/24 10:24:32;;;;;;;16.70;9.70;;;6.20;99.90;;;;;;5036314;28;20416;-69
2022/12/24 10:27:20;;;;;;;14.80;8.70;;;6.20;99.90;;;;;;5056782;28;20697;-68
2022/12/24 10:29:49;;;;;;;13.33;8.70;;;6.30;99.90;;;;;;5032558;28;20749;-68
2022/12/24 10:32:21;;;;;;;19.67;11.07;;;6.30;99.90;;;;;;5043345;28;20398;-69
2022/12/24 10:35:00;;;;;;;15.23;9.80;;;6.30;99.90;;;;;;5052757;28;20895;-70
2022/12/24 10:37:28;;;;;;;17.83;10.13;;;6.40;99.90;;;;;;5053637;28;20914;-68
2022/12/24 10:39:55;;;;;;;16.87;10.23;;;6.40;99.90;;;;;;5054263;28;21020;-64
2022/12/24 10:42:24;;;;;;;23.40;11.80;;;6.50;99.90;;;;;;5049014;28;20877;-68
2022/12/24 10:45:00;;;;;;;20.43;12.70;;;6.40;99.90;;;;;;5021856;28;20425;-68
2022/12/24 10:47:26;;;;;;;19.93;11.90;;;6.50;99.90;;;;;;5048836;28;20933;-69
2022/12/24 10:49:56;;;;;;;20.07;10.70;;;6.50;99.90;;;;;;5025632;28;20444;-69
2022/12/24 10:52:27;;;;;;;23.50;14.50;;;6.60;99.90;;;;;;5050529;28;20416;-70
2022/12/24 10:55:23;;;;;;;28.20;14.07;;;6.60;99.90;;;;;;5050123;28;21061;-70
2022/12/24 10:58:04;;;;;;;22.13;10.43;;;6.70;99.90;;;;;;5055649;28;20413;-69
2022/12/24 11:00:30;;;;;;;18.03;9.73;;;6.80;99.90;;;;;;5032705;28;20548;-67
2022/12/24 11:03:22;;;;;;;23.50;11.40;;;6.80;99.90;;;;;;5050906;28;20402;-68
2022/12/24 11:06:14;;;;;;;20.80;12.90;;;6.90;99.90;;;;;;5051677;28;20438;-69
2022/12/24 11:08:42;;;;;;;20.77;9.87;;;7.10;99.90;;;;;;5048329;28;20998;-69
2022/12/24 11:11:18;;;;;;;16.97;10.60;;;6.90;99.90;;;;;;5049958;28;20816;-69
2022/12/24 11:13:51;;;;;;;19.37;12.00;;;6.90;99.90;;;;;;5046229;28;20410;-70
2022/12/24 11:16:30;;;;;;;14.03;9.33;;;6.90;99.90;;;;;;5050236;28;20409;-70
2022/12/24 11:19:00;;;;;;;14.87;10.50;;;7.00;99.90;;;;;;5056235;28;20396;-66
2022/12/24 11:21:29;;;;;;;15.63;9.90;;;7.00;99.90;;;;;;5050183;28;20457;-68
2022/12/24 11:24:04;;;;;;;17.93;9.40;;;7.00;99.90;;;;;;5050096;28;20825;-69
2022/12/24 11:26:30;;;;;;;15.93;9.87;;;7.10;99.90;;;;;;5056429;28;20408;-69
2022/12/24 11:29:14;;;;;;;16.30;10.53;;;7.10;99.90;;;;;;5048523;28;20408;-69
2022/12/24 11:31:44;;;;;;;13.73;8.57;;;7.00;99.90;;;;;;5050530;28;21014;-70
2022/12/24 11:34:31;;;;;;;14.90;8.60;;;7.00;99.90;;;;;;5033357;28;20490;-69
2022/12/24 11:37:08;;;;;;;14.07;7.73;;;7.10;99.90;;;;;;5053826;28;20455;-68
2022/12/24 11:39:48;;;;;;;14.60;7.80;;;7.20;99.90;;;;;;5044798;28;20464;-69
2022/12/24 11:42:40;;;;;;;13.00;8.57;;;7.10;99.90;;;;;;5044754;28;20427;-69
2022/12/24 11:45:23;;;;;;;17.33;9.07;;;7.00;99.90;;;;;;5037165;28;20486;-70
2022/12/24 11:47:49;;;;;;;16.50;9.60;;;7.00;99.90;;;;;;5053253;28;20455;-68
2022/12/24 11:50:30;;;;;;;13.63;8.87;;;7.20;99.90;;;;;;5037320;28;20461;-69
2022/12/24 11:52:56;;;;;;;11.50;8.57;;;7.30;99.90;;;;;;5049627;28;20175;-69
2022/12/24 11:55:40;;;;;;;12.93;7.47;;;7.20;99.90;;;;;;5046839;28;20421;-69
2022/12/24 11:58:24;;;;;;;11.83;8.27;;;7.20;99.90;;;;;;5049383;28;20176;-69
2022/12/24 12:00:56;;;;;;;15.13;8.40;;;7.20;99.90;;;;;;5049421;28;20453;-70
2022/12/24 12:03:32;;;;;;;9.53;7.33;;;7.20;99.90;;;;;;5057355;28;20404;-68
2022/12/24 12:06:02;;;;;;;12.03;6.03;;;7.30;99.90;;;;;;5059035;28;20465;-69
2022/12/24 12:08:29;;;;;;;11.43;6.77;;;7.30;99.90;;;;;;5053098;28;20399;-67
2022/12/24 12:10:57;;;;;;;11.30;7.27;;;7.40;99.90;;;;;;5049786;28;20440;-69
2022/12/24 12:13:31;;;;;;;14.70;8.70;;;7.50;99.90;;;;;;5051025;28;20776;-69
2022/12/24 12:16:21;;;;;;;8.77;7.13;;;7.50;99.90;;;;;;5059032;28;20438;-68
2022/12/24 12:19:01;;;;;;;9.83;6.50;;;7.50;99.90;;;;;;5050954;28;20433;-68
2022/12/24 12:21:37;;;;;;;12.27;8.27;;;7.40;99.90;;;;;;5056427;28;20496;-69
2022/12/24 12:24:11;;;;;;;11.13;7.53;;;7.40;99.90;;;;;;5052070;28;20594;-69
2022/12/24 12:26:39;;;;;;;11.47;7.43;;;7.40;99.90;;;;;;5049888;28;20446;-69
2022/12/24 12:29:26;;;;;;;12.90;8.00;;;7.50;99.90;;;;;;5049125;28;20432;-69
2022/12/24 12:32:01;;;;;;;10.73;8.00;;;7.40;99.90;;;;;;5049534;28;20474;-69
2022/12/24 12:34:42;;;;;;;10.10;6.67;;;7.50;99.90;;;;;;5041956;28;20411;-68
2022/12/24 12:37:17;;;;;;;9.20;7.07;;;7.50;99.90;;;;;;5048225;28;20413;-69
2022/12/24 12:39:42;;;;;;;8.20;6.40;;;7.50;99.90;;;;;;5036745;28;20489;-68
2022/12/24 12:42:08;;;;;;;12.60;7.40;;;7.60;99.90;;;;;;5052345;28;20467;-66
2022/12/24 12:44:55;;;;;;;6.70;5.80;;;7.70;99.90;;;;;;5054958;28;20513;-69
2022/12/24 12:47:51;;;;;;;8.27;5.33;;;7.80;99.90;;;;;;5042913;28;20230;-68
2022/12/24 12:50:27;;;;;;;12.67;7.10;;;7.70;99.90;;;;;;5044924;28;20438;-68
2022/12/24 12:53:05;;;;;;;9.10;7.20;;;7.70;99.90;;;;;;5049439;28;20410;-68
2022/12/24 12:55:49;;;;;;;8.50;7.03;;;7.80;99.90;;;;;;5049229;28;20409;-68
2022/12/24 12:58:24;;;;;;;11.60;6.97;;;7.80;99.90;;;;;;5043884;28;20404;-68
2022/12/24 13:00:56;;;;;;;8.87;6.30;;;7.90;99.90;;;;;;5034054;28;20814;-68
2022/12/24 13:03:53;;;;;;;8.83;6.43;;;7.80;99.90;;;;;;5060630;28;20413;-67
2022/12/24 13:06:28;;;;;;;7.93;5.60;;;7.90;99.90;;;;;;5047095;28;20993;-68
2022/12/24 13:09:24;;;;;;;10.40;6.60;;;8.10;99.90;;;;;;5055754;28;20531;-68
2022/12/24 13:12:08;;;;;;;10.07;7.60;;;8.00;99.90;;;;;;5052641;28;20937;-67